createdAt,value
2022-09-01T00:02:52.235Z,8.20
2022-09-01T00:07:58.746Z,7.15
2022-09-01T00:13:02.614Z,7.20
2022-09-01T00:18:07.515Z,7.13
2022-09-01T00:23:11.336Z,9.13
2022-09-01T00:28:14.617Z,9.55
2022-09-01T00:33:19.160Z,10.77
2022-09-01T00:38:22.489Z,11.00
2022-09-01T00:43:38.698Z,10.18
2022-09-01T00:48:43.478Z,10.75
2022-09-01T00:53:47.486Z,12.55
2022-09-01T00:58:51.839Z,13.02
2022-09-01T01:03:57.756Z,10.95
2022-09-01T01:09:02.120Z,10.68
2022-09-01T01:14:12.272Z,11.55
2022-09-01T01:19:39.071Z,10.40
2022-09-01T01:24:44.401Z,11.05
2022-09-01T01:29:47.806Z,10.82
2022-09-01T01:34:51.121Z,10.75
2022-09-01T01:39:56.253Z,9.68
2022-09-01T01:44:59.615Z,9.65
2022-09-01T01:50:04.339Z,9.85
2022-09-01T01:55:12.684Z,10.15
2022-09-01T02:00:19.875Z,9.32
2022-09-01T02:05:34.161Z,10.85
2022-09-01T02:10:43.015Z,10.85
2022-09-01T02:15:49.220Z,12.10
2022-09-01T02:20:54.150Z,15.65
2022-09-01T02:26:15.999Z,14.60
2022-09-01T02:31:21.067Z,14.82
2022-09-01T02:36:25.938Z,14.68
2022-09-01T02:41:34.684Z,14.45
2022-09-01T02:46:41.943Z,13.82
2022-09-01T02:51:47.409Z,13.45
2022-09-01T02:56:54.602Z,14.93
2022-09-01T03:01:58.335Z,12.23
2022-09-01T03:07:02.005Z,12.18
2022-09-01T03:12:07.273Z,12.25
2022-09-01T03:17:10.561Z,13.10
2022-09-01T03:22:13.750Z,11.65
2022-09-01T03:27:18.385Z,13.07
2022-09-01T03:32:21.658Z,14.50
2022-09-01T03:37:24.870Z,14.85
2022-09-01T03:42:32.519Z,15.10
2022-09-01T03:47:40.790Z,18.60
2022-09-01T03:52:45.427Z,18.27
2022-09-01T03:57:50.849Z,16.75
2022-09-01T04:02:56.966Z,15.80
2022-09-01T04:08:04.062Z,16.15
2022-09-01T04:13:11.827Z,13.48
2022-09-01T04:18:21.588Z,12.85
2022-09-01T04:23:30.127Z,9.70
2022-09-01T04:28:37.478Z,9.30
2022-09-01T04:33:40.848Z,8.90
2022-09-01T04:38:44.100Z,8.30
2022-09-01T04:43:51.924Z,7.20
2022-09-01T04:48:58.612Z,8.07
2022-09-01T04:54:03.750Z,8.50
2022-09-01T04:59:10.952Z,8.00
2022-09-01T05:04:19.967Z,8.70
2022-09-01T05:09:25.267Z,8.27
2022-09-01T05:14:31.070Z,8.57
2022-09-01T05:19:34.432Z,8.95
2022-09-01T05:24:41.878Z,8.55
2022-09-01T05:29:47.048Z,8.05
2022-09-01T05:34:53.615Z,7.43
2022-09-01T05:39:56.877Z,7.32
2022-09-01T05:45:02.305Z,7.65
2022-09-01T05:50:05.905Z,7.32
2022-09-01T05:55:10.217Z,7.10
2022-09-01T06:00:18.116Z,5.85
2022-09-01T06:05:21.770Z,6.55
2022-09-01T06:10:25.307Z,5.63
2022-09-01T06:15:30.979Z,6.22
2022-09-01T06:20:36.572Z,6.93
2022-09-01T06:25:45.194Z,8.77
2022-09-01T06:30:51.083Z,10.77
2022-09-01T06:35:55.999Z,11.55
2022-09-01T06:41:04.364Z,13.10
2022-09-01T06:46:09.894Z,13.00
2022-09-01T06:51:15.895Z,12.60
2022-09-01T06:56:21.358Z,12.43
2022-09-01T07:01:27.864Z,12.10
2022-09-01T07:17:23.588Z,10.65
2022-09-01T07:27:50.537Z,11.43
2022-09-01T07:32:55.760Z,8.60
2022-09-01T07:43:27.296Z,7.38
2022-09-01T07:48:36.466Z,7.78
2022-09-01T07:53:57.924Z,7.90
2022-09-01T07:59:02.301Z,7.85
2022-09-01T08:04:07.386Z,7.60
2022-09-01T08:09:11.747Z,7.05
2022-09-01T08:14:18.243Z,7.30
2022-09-01T08:24:50.841Z,6.60
2022-09-01T08:29:54.153Z,6.10
2022-09-01T08:34:58.990Z,5.90
2022-09-01T08:40:04.041Z,5.72
2022-09-01T08:45:16.756Z,6.00
2022-09-01T08:50:25.130Z,5.07
2022-09-01T08:55:35.411Z,4.85
2022-09-01T09:00:50.575Z,4.80
2022-09-01T09:06:08.173Z,4.20
2022-09-01T09:11:21.965Z,4.93
2022-09-01T09:16:29.026Z,5.07
2022-09-01T09:21:37.093Z,4.82
2022-09-01T09:26:43.549Z,4.43
2022-09-01T09:31:50.778Z,5.43
2022-09-01T09:36:57.336Z,4.40
2022-09-01T09:42:09.135Z,4.35
2022-09-01T09:47:43.058Z,3.50
2022-09-01T09:52:49.552Z,3.30
2022-09-01T09:57:57.969Z,2.92
2022-09-01T10:03:10.031Z,2.88
2022-09-01T10:08:39.829Z,2.97
2022-09-01T10:13:44.777Z,2.35
2022-09-01T10:18:51.354Z,2.08
2022-09-01T10:24:17.046Z,2.00
2022-09-01T10:29:25.707Z,1.92
2022-09-01T10:34:34.626Z,2.10
2022-09-01T10:40:12.919Z,2.20
2022-09-01T10:45:33.595Z,1.67
2022-09-01T10:50:37.311Z,1.58
2022-09-01T10:55:46.028Z,2.00
2022-09-01T11:12:42.041Z,2.20
2022-09-01T11:17:58.780Z,1.95
2022-09-01T11:23:05.407Z,1.90
2022-09-01T11:28:38.389Z,2.20
2022-09-01T11:33:51.434Z,2.67
2022-09-01T11:38:58.047Z,1.90
2022-09-01T11:44:03.237Z,1.95
2022-09-01T11:49:22.315Z,1.75
2022-09-01T11:54:26.952Z,1.83
2022-09-01T11:59:35.605Z,2.00
2022-09-01T12:04:41.327Z,2.00
2022-09-01T12:09:48.679Z,2.20
2022-09-01T12:15:05.845Z,1.80
2022-09-01T12:20:30.086Z,1.85
2022-09-01T12:25:35.557Z,1.52
2022-09-01T12:30:40.741Z,1.77
2022-09-01T12:35:45.708Z,2.03
2022-09-01T12:40:52.492Z,2.45
2022-09-01T12:45:57.573Z,1.92
2022-09-01T12:51:05.211Z,1.90
2022-09-01T12:56:26.913Z,1.90
2022-09-01T13:01:33.250Z,1.92
2022-09-01T13:06:38.313Z,1.90
2022-09-01T13:17:06.085Z,1.58
2022-09-01T13:22:18.946Z,1.80
2022-09-01T13:27:22.856Z,2.10
2022-09-01T13:32:26.356Z,2.17
2022-09-01T13:37:32.093Z,1.63
2022-09-01T13:42:37.269Z,2.20
2022-09-01T13:53:06.272Z,1.65
2022-09-01T13:58:09.931Z,2.00
2022-09-01T14:03:18.042Z,1.83
2022-09-01T14:08:23.825Z,1.67
2022-09-01T14:13:27.985Z,1.67
2022-09-01T14:18:36.854Z,1.50
2022-09-01T14:23:41.766Z,2.00
2022-09-01T14:28:48.632Z,2.47
2022-09-01T14:33:52.295Z,1.70
2022-09-01T14:38:56.939Z,1.40
2022-09-01T14:44:03.757Z,1.38
2022-09-01T14:49:07.866Z,1.58
2022-09-01T14:54:12.478Z,1.60
2022-09-01T14:59:15.736Z,1.65
2022-09-01T15:04:19.011Z,1.58
2022-09-01T15:09:25.440Z,1.70
2022-09-01T15:14:31.039Z,1.73
2022-09-01T15:19:34.311Z,2.05
2022-09-01T15:24:40.739Z,2.10
2022-09-01T15:29:48.087Z,1.65
2022-09-01T15:34:55.123Z,1.67
2022-09-01T15:40:00.007Z,1.50
2022-09-01T15:45:08.918Z,1.80
2022-09-01T15:50:21.625Z,1.45
2022-09-01T15:55:33.767Z,1.63
2022-09-01T16:00:37.678Z,1.52
2022-09-01T16:05:42.779Z,1.50
2022-09-01T16:10:48.805Z,1.65
2022-09-01T16:16:02.613Z,2.00
2022-09-01T16:21:17.830Z,1.80
2022-09-01T16:26:23.928Z,1.83
2022-09-01T16:31:30.517Z,2.60
2022-09-01T16:36:42.701Z,2.10
2022-09-01T16:41:56.270Z,1.65
2022-09-01T16:47:09.118Z,1.45
2022-09-01T16:52:25.535Z,2.08
2022-09-01T16:57:39.019Z,2.83
2022-09-01T17:02:50.378Z,2.47
2022-09-01T17:07:58.168Z,1.80
2022-09-01T17:13:17.371Z,2.00
2022-09-01T17:18:41.294Z,1.63
2022-09-01T17:23:54.435Z,1.58
2022-09-01T17:29:03.480Z,1.83
2022-09-01T17:34:26.332Z,1.83
2022-09-01T17:39:45.826Z,1.80
2022-09-01T17:44:56.560Z,1.90
2022-09-01T17:50:08.373Z,1.90
2022-09-01T17:55:20.020Z,1.70
2022-09-01T18:00:26.831Z,2.10
2022-09-01T18:05:35.310Z,2.20
2022-09-01T18:10:47.263Z,1.80
2022-09-01T18:16:00.358Z,2.05
2022-09-01T18:21:09.182Z,2.03
2022-09-01T18:26:21.577Z,2.30
2022-09-01T18:31:56.931Z,2.13
2022-09-01T18:37:09.097Z,2.20
2022-09-01T18:42:25.559Z,2.40
2022-09-01T18:47:36.132Z,2.03
2022-09-01T18:53:03.365Z,2.60
2022-09-01T18:58:11.715Z,2.03
2022-09-01T19:03:27.417Z,2.22
2022-09-01T19:08:47.000Z,2.35
2022-09-01T19:14:00.399Z,2.30
2022-09-01T19:19:19.890Z,1.88
2022-09-01T19:24:28.524Z,2.05
2022-09-01T19:29:38.053Z,2.03
2022-09-01T19:34:46.801Z,2.45
2022-09-01T19:39:54.599Z,2.67
2022-09-01T19:45:05.456Z,2.53
2022-09-01T19:50:21.635Z,2.40
2022-09-01T19:55:31.798Z,3.22
2022-09-01T20:00:51.197Z,2.47
2022-09-01T20:06:02.364Z,2.10
2022-09-01T20:11:12.079Z,2.58
2022-09-01T20:16:25.582Z,2.78
2022-09-01T20:21:31.466Z,2.45
2022-09-01T20:26:40.728Z,2.55
2022-09-01T20:31:47.135Z,3.10
2022-09-01T20:36:55.834Z,2.97
2022-09-01T20:42:04.915Z,2.70
2022-09-01T20:47:09.456Z,2.45
2022-09-01T20:52:21.835Z,2.30
2022-09-01T20:57:39.248Z,2.47
2022-09-01T21:02:51.898Z,2.78
2022-09-01T21:08:14.877Z,2.47
2022-09-01T21:13:29.755Z,2.95
2022-09-01T21:18:52.704Z,2.85
2022-09-01T21:23:58.668Z,2.47
2022-09-01T21:29:13.993Z,2.63
2022-09-01T21:34:17.290Z,2.88
2022-09-01T21:39:22.091Z,3.35
2022-09-01T21:44:27.639Z,3.03
2022-09-01T21:49:30.913Z,3.17
2022-09-01T21:54:38.948Z,3.13
2022-09-01T21:59:42.280Z,3.42
2022-09-01T22:04:51.617Z,3.33
2022-09-01T22:09:57.847Z,2.53
2022-09-01T22:15:02.930Z,2.72
2022-09-01T22:20:09.082Z,2.97
2022-09-01T22:25:24.372Z,3.10
2022-09-01T22:30:28.935Z,2.95
2022-09-01T22:35:32.407Z,3.08
2022-09-01T22:40:37.156Z,2.95
2022-09-01T22:45:42.961Z,2.95
2022-09-01T22:50:51.577Z,3.15
2022-09-01T22:55:57.448Z,2.50
2022-09-01T23:01:00.903Z,2.47
2022-09-01T23:06:10.459Z,2.33
2022-09-01T23:11:15.507Z,2.15
2022-09-01T23:16:19.135Z,2.05
2022-09-01T23:21:26.638Z,2.00
2022-09-01T23:26:33.043Z,1.48
2022-09-01T23:31:38.380Z,1.77
2022-09-01T23:36:42.509Z,1.77
2022-09-01T23:41:48.554Z,1.38
2022-09-01T23:46:51.857Z,1.42
2022-09-01T23:51:55.962Z,1.60
2022-09-01T23:57:00.907Z,1.50
